sensor_id;sensor_type;location;lat;lon;timestamp;temperature;humidity
29255;DHT22;16277;48.890;2.306;2023-03-23T00:14:28;15.60;99.90
29255;DHT22;16277;48.890;2.306;2023-03-23T00:29:43;15.30;99.90
29255;DHT22;16277;48.890;2.306;2023-03-23T00:44:47;15.50;99.90
29255;DHT22;16277;48.890;2.306;2023-03-23T00:59:50;15.80;99.90
29255;DHT22;16277;48.890;2.306;2023-03-23T01:14:54;16.10;99.90
29255;DHT22;16277;48.890;2.306;2023-03-23T01:29:57;15.70;99.90
29255;DHT22;16277;48.890;2.306;2023-03-23T01:45:29;15.40;99.90
29255;DHT22;16277;48.890;2.306;2023-03-23T02:00:34;15.90;99.90
29255;DHT22;16277;48.890;2.306;2023-03-23T02:15:45;15.70;99.90
29255;DHT22;16277;48.890;2.306;2023-03-23T02:31:07;15.40;99.90
29255;DHT22;16277;48.890;2.306;2023-03-23T02:46:15;15.60;99.90
29255;DHT22;16277;48.890;2.306;2023-03-23T03:01:59;15.30;99.90
29255;DHT22;16277;48.890;2.306;2023-03-23T03:17:10;15.30;99.90
29255;DHT22;16277;48.890;2.306;2023-03-23T03:32:21;15.90;99.90
29255;DHT22;16277;48.890;2.306;2023-03-23T03:47:27;15.40;99.90
29255;DHT22;16277;48.890;2.306;2023-03-23T04:02:30;15.50;99.90
29255;DHT22;16277;48.890;2.306;2023-03-23T04:17:34;15.30;99.90
29255;DHT22;16277;48.890;2.306;2023-03-23T04:32:40;15.50;99.90
29255;DHT22;16277;48.890;2.306;2023-03-23T04:47:45;15.50;99.90
29255;DHT22;16277;48.890;2.306;2023-03-23T05:02:58;15.20;99.90
29255;DHT22;16277;48.890;2.306;2023-03-23T05:18:04;15.50;99.90
29255;DHT22;16277;48.890;2.306;2023-03-23T05:33:09;15.40;99.90
29255;DHT22;16277;48.890;2.306;2023-03-23T05:48:39;15.30;99.90
29255;DHT22;16277;48.890;2.306;2023-03-23T06:03:47;15.30;99.90
29255;DHT22;16277;48.890;2.306;2023-03-23T06:18:58;15.30;99.90
29255;DHT22;16277;48.890;2.306;2023-03-23T06:34:09;15.20;99.90
29255;DHT22;16277;48.890;2.306;2023-03-23T06:49:36;15.20;99.90
29255;DHT22;16277;48.890;2.306;2023-03-23T07:04:55;15.20;99.90
29255;DHT22;16277;48.890;2.306;2023-03-23T07:20:01;15.30;99.90
29255;DHT22;16277;48.890;2.306;2023-03-23T07:35:07;15.40;99.90
29255;DHT22;16277;48.890;2.306;2023-03-23T07:50:34;15.60;99.90
29255;DHT22;16277;48.890;2.306;2023-03-23T08:05:42;15.60;99.90
29255;DHT22;16277;48.890;2.306;2023-03-23T08:20:49;15.90;99.90
29255;DHT22;16277;48.890;2.306;2023-03-23T08:36:22;15.70;99.90
29255;DHT22;16277;48.890;2.306;2023-03-23T08:51:50;15.90;99.90
29255;DHT22;16277;48.890;2.306;2023-03-23T09:07:06;16.20;99.90
29255;DHT22;16277;48.890;2.306;2023-03-23T09:22:09;16.10;99.90
29255;DHT22;16277;48.890;2.306;2023-03-23T09:37:13;16.00;99.90
29255;DHT22;16277;48.890;2.306;2023-03-23T09:52:18;15.90;99.90
29255;DHT22;16277;48.890;2.306;2023-03-23T10:07:23;16.00;99.90
29255;DHT22;16277;48.890;2.306;2023-03-23T10:22:32;16.20;99.90
29255;DHT22;16277;48.890;2.306;2023-03-23T10:37:40;17.20;99.90
29255;DHT22;16277;48.890;2.306;2023-03-23T10:52:45;17.10;99.90
29255;DHT22;16277;48.890;2.306;2023-03-23T11:07:52;16.90;99.90
29255;DHT22;16277;48.890;2.306;2023-03-23T11:22:57;17.20;99.90
29255;DHT22;16277;48.890;2.306;2023-03-23T11:38:00;17.50;99.90
29255;DHT22;16277;48.890;2.306;2023-03-23T11:53:12;17.40;99.90
29255;DHT22;16277;48.890;2.306;2023-03-23T12:08:34;17.70;99.90
29255;DHT22;16277;48.890;2.306;2023-03-23T12:23:45;17.50;99.90
29255;DHT22;16277;48.890;2.306;2023-03-23T12:39:02;17.90;99.90
29255;DHT22;16277;48.890;2.306;2023-03-23T12:54:12;18.40;99.90
29255;DHT22;16277;48.890;2.306;2023-03-23T13:09:22;18.50;99.90
29255;DHT22;16277;48.890;2.306;2023-03-23T13:24:30;18.40;99.90
29255;DHT22;16277;48.890;2.306;2023-03-23T13:39:37;18.90;99.90
29255;DHT22;16277;48.890;2.306;2023-03-23T13:54:42;18.60;99.90
29255;DHT22;16277;48.890;2.306;2023-03-23T14:09:46;18.80;99.90
29255;DHT22;16277;48.890;2.306;2023-03-23T14:24:52;18.50;99.90
29255;DHT22;16277;48.890;2.306;2023-03-23T14:39:55;18.60;99.90
29255;DHT22;16277;48.890;2.306;2023-03-23T14:55:12;18.80;99.90
29255;DHT22;16277;48.890;2.306;2023-03-23T15:10:18;18.80;99.90
29255;DHT22;16277;48.890;2.306;2023-03-23T15:25:28;19.50;99.90
29255;DHT22;16277;48.890;2.306;2023-03-23T15:40:37;19.10;99.90
29255;DHT22;16277;48.890;2.306;2023-03-23T15:55:41;18.70;99.90
29255;DHT22;16277;48.890;2.306;2023-03-23T16:10:44;18.30;99.90
29255;DHT22;16277;48.890;2.306;2023-03-23T16:25:49;18.10;99.90
29255;DHT22;16277;48.890;2.306;2023-03-23T16:40:53;17.90;99.90
29255;DHT22;16277;48.890;2.306;2023-03-23T16:55:58;17.90;99.90
29255;DHT22;16277;48.890;2.306;2023-03-23T17:11:03;17.80;99.90
29255;DHT22;16277;48.890;2.306;2023-03-23T17:26:08;17.80;99.90
29255;DHT22;16277;48.890;2.306;2023-03-23T17:41:12;17.60;99.90
29255;DHT22;16277;48.890;2.306;2023-03-23T17:56:17;17.80;99.90
29255;DHT22;16277;48.890;2.306;2023-03-23T18:11:21;17.50;99.90
29255;DHT22;16277;48.890;2.306;2023-03-23T18:26:26;17.50;99.90
29255;DHT22;16277;48.890;2.306;2023-03-23T18:41:31;17.80;99.90
29255;DHT22;16277;48.890;2.306;2023-03-23T18:56:36;17.30;99.90
29255;DHT22;16277;48.890;2.306;2023-03-23T19:11:40;17.70;99.90
29255;DHT22;16277;48.890;2.306;2023-03-23T19:26:45;17.50;99.90
29255;DHT22;16277;48.890;2.306;2023-03-23T19:41:50;17.50;99.90
29255;DHT22;16277;48.890;2.306;2023-03-23T19:56:54;17.60;99.90
29255;DHT22;16277;48.890;2.306;2023-03-23T20:11:59;17.50;99.90
29255;DHT22;16277;48.890;2.306;2023-03-23T20:27:03;17.40;99.90
29255;DHT22;16277;48.890;2.306;2023-03-23T20:42:08;17.30;99.90
29255;DHT22;16277;48.890;2.306;2023-03-23T20:57:13;17.40;99.90
29255;DHT22;16277;48.890;2.306;2023-03-23T21:12:18;17.40;99.90
29255;DHT22;16277;48.890;2.306;2023-03-23T21:27:22;17.40;99.90
29255;DHT22;16277;48.890;2.306;2023-03-23T21:42:27;17.40;99.90
29255;DHT22;16277;48.890;2.306;2023-03-23T21:57:33;17.60;99.90
29255;DHT22;16277;48.890;2.306;2023-03-23T22:12:39;17.70;99.90
29255;DHT22;16277;48.890;2.306;2023-03-23T22:27:44;17.60;99.90
29255;DHT22;16277;48.890;2.306;2023-03-23T22:42:49;17.40;99.90
29255;DHT22;16277;48.890;2.306;2023-03-23T22:57:53;17.40;99.90
29255;DHT22;16277;48.890;2.306;2023-03-23T23:12:58;17.10;99.90
29255;DHT22;16277;48.890;2.306;2023-03-23T23:28:04;16.80;99.90
29255;DHT22;16277;48.890;2.306;2023-03-23T23:43:10;17.20;99.90
29255;DHT22;16277;48.890;2.306;2023-03-23T23:58:15;16.70;99.90
